sensor_id;sensor_type;location;lat;lon;timestamp;pressure;altitude;pressure_sealevel;temperature;humidity
4123;BME280;2075;51.062;6.920;2023-05-23T00:02:45;-5107.41;;;-144.48;100.00
4123;BME280;2075;51.062;6.920;2023-05-23T00:05:33;-5359.88;;;-144.48;100.00
4123;BME280;2075;51.062;6.920;2023-05-23T00:08:18;-6117.19;;;-144.48;100.00
4123;BME280;2075;51.062;6.920;2023-05-23T00:11:03;-7631.31;;;-144.48;100.00
4123;BME280;2075;51.062;6.920;2023-05-23T00:13:49;-8892.53;;;-144.48;100.00
4123;BME280;2075;51.062;6.920;2023-05-23T00:16:34;-9396.91;;;-144.48;100.00
4123;BME280;2075;51.062;6.920;2023-05-23T00:19:25;-10153.28;;;-144.48;100.00
4123;BME280;2075;51.062;6.920;2023-05-23T00:22:11;-10153.28;;;-144.48;100.00
4123;BME280;2075;51.062;6.920;2023-05-23T00:24:58;-8640.34;;;-144.48;100.00
4123;BME280;2075;51.062;6.920;2023-05-23T00:27:45;-6621.97;;;-144.48;100.00
4123;BME280;2075;51.062;6.920;2023-05-23T00:30:31;-3844.69;;;-144.48;100.00
4123;BME280;2075;51.062;6.920;2023-05-23T00:33:17;-1317.84;;;-144.48;100.00
4123;BME280;2075;51.062;6.920;2023-05-23T00:36:06;452.09;;;-144.48;100.00
4123;BME280;2075;51.062;6.920;2023-05-23T00:38:51;2982.25;;;-144.48;100.00
4123;BME280;2075;51.062;6.920;2023-05-23T00:41:37;4248.06;;;-144.48;100.00
4123;BME280;2075;51.062;6.920;2023-05-23T00:44:23;5514.38;;;-144.48;100.00
4123;BME280;2075;51.062;6.920;2023-05-23T00:47:08;5514.38;;;-144.48;100.00
4123;BME280;2075;51.062;6.920;2023-05-23T00:49:56;7034.56;;;-144.48;100.00
4123;BME280;2075;51.062;6.920;2023-05-23T00:52:44;7541.47;;;-144.48;100.00
4123;BME280;2075;51.062;6.920;2023-05-23T00:55:30;8809.03;;;-144.48;100.00
4123;BME280;2075;51.062;6.920;2023-05-23T00:58:15;9062.59;;;-144.48;100.00
4123;BME280;2075;51.062;6.920;2023-05-23T01:01:01;8809.03;;;-144.48;100.00
4123;BME280;2075;51.062;6.920;2023-05-23T01:03:46;9569.81;;;-144.48;100.00
4123;BME280;2075;51.062;6.920;2023-05-23T01:06:33;10330.75;;;-144.48;100.00
4123;BME280;2075;51.062;6.920;2023-05-23T01:09:21;10330.75;;;-144.48;100.00
4123;BME280;2075;51.062;6.920;2023-05-23T01:12:18;10584.44;;;-144.48;100.00
4123;BME280;2075;51.062;6.920;2023-05-23T01:15:07;11345.63;;;-144.48;100.00
4123;BME280;2075;51.062;6.920;2023-05-23T01:17:58;11599.41;;;-144.48;100.00
4123;BME280;2075;51.062;6.920;2023-05-23T01:20:49;13376.31;;;-144.48;100.00
4123;BME280;2075;51.062;6.920;2023-05-23T01:24:02;14138.13;;;-144.48;100.00
4123;BME280;2075;51.062;6.920;2023-05-23T01:27:03;14138.13;;;-144.48;100.00
4123;BME280;2075;51.062;6.920;2023-05-23T01:29:53;17949.91;;;-144.48;100.00
4123;BME280;2075;51.062;6.920;2023-05-23T01:32:40;31963.94;;;-144.48;100.00
4123;BME280;2075;51.062;6.920;2023-05-23T01:35:28;35796.19;;;-144.48;100.00
4123;BME280;2075;51.062;6.920;2023-05-23T01:38:14;35796.19;;;-144.48;100.00
4123;BME280;2075;51.062;6.920;2023-05-23T01:40:59;39632.81;;;-144.48;100.00
4123;BME280;2075;51.062;6.920;2023-05-23T01:43:45;39632.81;;;-144.48;100.00
4123;BME280;2075;51.062;6.920;2023-05-23T01:46:33;35540.56;;;-144.48;100.00
4123;BME280;2075;51.062;6.920;2023-05-23T01:49:20;36818.88;;;-144.48;100.00
4123;BME280;2075;51.062;6.920;2023-05-23T01:52:07;37074.59;;;-144.48;100.00
4123;BME280;2075;51.062;6.920;2023-05-23T01:54:54;38865.16;;;-144.48;100.00
4123;BME280;2075;51.062;6.920;2023-05-23T01:57:40;42193.03;;;-144.48;100.00
4123;BME280;2075;51.062;6.920;2023-05-23T02:00:26;43217.66;;;-144.48;100.00
4123;BME280;2075;51.062;6.920;2023-05-23T02:03:13;41168.72;;;-144.48;100.00
4123;BME280;2075;51.062;6.920;2023-05-23T02:05:58;40144.72;;;-144.48;100.00
4123;BME280;2075;51.062;6.920;2023-05-23T02:08:44;39888.75;;;-144.48;100.00
4123;BME280;2075;51.062;6.920;2023-05-23T02:11:30;38097.66;;;-144.48;100.00
4123;BME280;2075;51.062;6.920;2023-05-23T02:14:16;39632.81;;;-144.48;100.00
4123;BME280;2075;51.062;6.920;2023-05-23T02:17:02;41936.91;;;-144.48;100.00
4123;BME280;2075;51.062;6.920;2023-05-23T02:19:49;40400.69;;;-144.48;100.00
4123;BME280;2075;51.062;6.920;2023-05-23T02:22:35;40144.72;;;-144.48;100.00
4123;BME280;2075;51.062;6.920;2023-05-23T02:25:21;37841.84;;;-144.48;100.00
4123;BME280;2075;51.062;6.920;2023-05-23T02:28:06;36563.16;;;-144.48;100.00
4123;BME280;2075;51.062;6.920;2023-05-23T02:30:51;34007.25;;;-144.48;100.00
4123;BME280;2075;51.062;6.920;2023-05-23T02:33:37;34262.75;;;-144.48;100.00
4123;BME280;2075;51.062;6.920;2023-05-23T02:36:24;31453.31;;;-144.48;100.00
4123;BME280;2075;51.062;6.920;2023-05-23T02:39:09;32985.44;;;-144.48;100.00
4123;BME280;2075;51.062;6.920;2023-05-23T02:41:55;38097.66;;;-144.48;100.00
4123;BME280;2075;51.062;6.920;2023-05-23T02:44:40;38353.47;;;-144.48;100.00
4123;BME280;2075;51.062;6.920;2023-05-23T02:47:26;38097.66;;;-144.48;100.00
4123;BME280;2075;51.062;6.920;2023-05-23T02:50:11;36051.84;;;-144.48;100.00
4123;BME280;2075;51.062;6.920;2023-05-23T02:52:58;34773.81;;;-144.48;100.00
4123;BME280;2075;51.062;6.920;2023-05-23T02:55:44;31708.63;;;-144.48;100.00
4123;BME280;2075;51.062;6.920;2023-05-23T02:58:30;32474.66;;;-144.48;100.00
4123;BME280;2075;51.062;6.920;2023-05-23T03:01:18;33751.78;;;-144.48;100.00
4123;BME280;2075;51.062;6.920;2023-05-23T03:04:03;31963.94;;;-144.48;100.00
4123;BME280;2075;51.062;6.920;2023-05-23T03:06:51;31708.63;;;-144.48;100.00
4123;BME280;2075;51.062;6.920;2023-05-23T03:09:43;31453.31;;;-144.48;100.00
4123;BME280;2075;51.062;6.920;2023-05-23T03:12:29;29156.41;;;-144.48;100.00
4123;BME280;2075;51.062;6.920;2023-05-23T03:15:14;27626.03;;;-144.48;100.00
4123;BME280;2075;51.062;6.920;2023-05-23T03:18:01;25586.63;;;-144.48;100.00
4123;BME280;2075;51.062;6.920;2023-05-23T03:20:48;25841.47;;;-144.48;100.00
4123;BME280;2075;51.062;6.920;2023-05-23T03:23:34;22020.63;;;-144.48;100.00
4123;BME280;2075;51.062;6.920;2023-05-23T03:26:22;18204.19;;;-144.48;100.00
4123;BME280;2075;51.062;6.920;2023-05-23T03:29:08;12360.81;;;-144.48;100.00
4123;BME280;2075;51.062;6.920;2023-05-23T03:31:53;9823.44;;;-144.48;100.00
4123;BME280;2075;51.062;6.920;2023-05-23T03:34:39;9569.81;;;-144.48;100.00
4123;BME280;2075;51.062;6.920;2023-05-23T03:37:24;10077.09;;;-144.48;100.00
4123;BME280;2075;51.062;6.920;2023-05-23T03:40:10;8301.94;;;-144.48;100.00
4123;BME280;2075;51.062;6.920;2023-05-23T03:43:04;8555.47;;;-144.48;100.00
4123;BME280;2075;51.062;6.920;2023-05-23T03:45:51;9823.44;;;-144.48;100.00
4123;BME280;2075;51.062;6.920;2023-05-23T03:48:36;10584.44;;;-144.48;100.00
4123;BME280;2075;51.062;6.920;2023-05-23T03:51:22;12360.81;;;-144.48;100.00
4123;BME280;2075;51.062;6.920;2023-05-23T03:54:08;13884.19;;;-144.48;100.00
4123;BME280;2075;51.062;6.920;2023-05-23T03:56:54;14646.13;;;-144.48;100.00
4123;BME280;2075;51.062;6.920;2023-05-23T03:59:41;14646.13;;;-144.48;100.00
4123;BME280;2075;51.062;6.920;2023-05-23T04:02:29;15154.19;;;-144.48;100.00
4123;BME280;2075;51.062;6.920;2023-05-23T04:05:15;18204.19;;;-144.48;100.00
4123;BME280;2075;51.062;6.920;2023-05-23T04:08:00;18458.47;;;-144.48;100.00
4123;BME280;2075;51.062;6.920;2023-05-23T04:10:46;20239.06;;;-144.48;100.00
4123;BME280;2075;51.062;6.920;2023-05-23T04:13:32;21257.00;;;-144.48;100.00
4123;BME280;2075;51.062;6.920;2023-05-23T04:16:18;24312.59;;;-144.48;100.00
4123;BME280;2075;51.062;6.920;2023-05-23T04:19:05;25076.94;;;-144.48;100.00
4123;BME280;2075;51.062;6.920;2023-05-23T04:21:52;26861.09;;;-144.48;100.00
4123;BME280;2075;51.062;6.920;2023-05-23T04:24:38;25586.63;;;-144.48;100.00
4123;BME280;2075;51.062;6.920;2023-05-23T04:27:24;25841.47;;;-144.48;100.00
4123;BME280;2075;51.062;6.920;2023-05-23T04:30:10;28391.13;;;-144.48;100.00
4123;BME280;2075;51.062;6.920;2023-05-23T04:33:00;30432.28;;;-144.48;100.00
4123;BME280;2075;51.062;6.920;2023-05-23T04:35:46;28646.22;;;-144.48;100.00
4123;BME280;2075;51.062;6.920;2023-05-23T04:38:32;27626.03;;;-144.48;100.00
4123;BME280;2075;51.062;6.920;2023-05-23T04:41:18;25076.94;;;-144.48;100.00
4123;BME280;2075;51.062;6.920;2023-05-23T04:44:09;23803.16;;;-144.48;100.00
4123;BME280;2075;51.062;6.920;2023-05-23T04:47:03;22020.63;;;-144.48;100.00
4123;BME280;2075;51.062;6.920;2023-05-23T04:50:16;18204.19;;;-144.48;100.00
4123;BME280;2075;51.062;6.920;2023-05-23T04:53:05;15408.25;;;-144.48;100.00
4123;BME280;2075;51.062;6.920;2023-05-23T04:55:50;16170.53;;;-144.48;100.00
4123;BME280;2075;51.062;6.920;2023-05-23T04:58:35;17695.66;;;-144.48;100.00
4123;BME280;2075;51.062;6.920;2023-05-23T05:01:24;16170.53;;;-144.48;100.00
4123;BME280;2075;51.062;6.920;2023-05-23T05:04:11;14900.13;;;-144.48;100.00
4123;BME280;2075;51.062;6.920;2023-05-23T05:06:58;15662.31;;;-144.48;100.00
4123;BME280;2075;51.062;6.920;2023-05-23T05:09:43;16424.66;;;-144.48;100.00
4123;BME280;2075;51.062;6.920;2023-05-23T05:12:29;17187.19;;;-144.48;100.00
4123;BME280;2075;51.062;6.920;2023-05-23T05:15:15;15154.19;;;-144.48;100.00
4123;BME280;2075;51.062;6.920;2023-05-23T05:18:04;17187.19;;;-144.48;100.00
4123;BME280;2075;51.062;6.920;2023-05-23T05:20:49;18967.13;;;-144.48;100.00
4123;BME280;2075;51.062;6.920;2023-05-23T05:23:36;18204.19;;;-144.48;100.00
4123;BME280;2075;51.062;6.920;2023-05-23T05:26:23;16933.00;;;-144.48;100.00
4123;BME280;2075;51.062;6.920;2023-05-23T05:29:08;19221.47;;;-144.48;100.00
4123;BME280;2075;51.062;6.920;2023-05-23T05:31:54;17949.91;;;-144.48;100.00
4123;BME280;2075;51.062;6.920;2023-05-23T05:34:39;17695.66;;;-144.48;100.00
4123;BME280;2075;51.062;6.920;2023-05-23T05:37:26;17695.66;;;-144.48;100.00
4123;BME280;2075;51.062;6.920;2023-05-23T05:40:12;14392.13;;;-144.48;100.00
4123;BME280;2075;51.062;6.920;2023-05-23T05:43:02;12614.66;;;-144.48;100.00
4123;BME280;2075;51.062;6.920;2023-05-23T05:45:47;16170.53;;;-144.48;100.00
4123;BME280;2075;51.062;6.920;2023-05-23T05:48:32;14138.13;;;-144.48;100.00
4123;BME280;2075;51.062;6.920;2023-05-23T05:51:22;14138.13;;;-144.48;100.00
4123;BME280;2075;51.062;6.920;2023-05-23T05:54:08;14392.13;;;-144.48;100.00
4123;BME280;2075;51.062;6.920;2023-05-23T05:56:55;14138.13;;;-144.48;100.00
4123;BME280;2075;51.062;6.920;2023-05-23T05:59:40;16170.53;;;-144.48;100.00
4123;BME280;2075;51.062;6.920;2023-05-23T06:02:25;18712.78;;;-144.48;100.00
4123;BME280;2075;51.062;6.920;2023-05-23T06:05:11;19984.66;;;-144.48;100.00
4123;BME280;2075;51.062;6.920;2023-05-23T06:07:57;16170.53;;;-144.48;100.00
4123;BME280;2075;51.062;6.920;2023-05-23T06:10:43;15408.25;;;-144.48;100.00
4123;BME280;2075;51.062;6.920;2023-05-23T06:13:30;15662.31;;;-144.48;100.00
4123;BME280;2075;51.062;6.920;2023-05-23T06:16:15;16933.00;;;-144.48;100.00
4123;BME280;2075;51.062;6.920;2023-05-23T06:19:02;17695.66;;;-144.48;100.00
4123;BME280;2075;51.062;6.920;2023-05-23T06:21:49;17441.41;;;-144.48;100.00
4123;BME280;2075;51.062;6.920;2023-05-23T06:24:35;15662.31;;;-144.48;100.00
4123;BME280;2075;51.062;6.920;2023-05-23T06:27:20;10838.16;;;-144.48;100.00
4123;BME280;2075;51.062;6.920;2023-05-23T06:30:08;12614.66;;;-144.48;100.00
4123;BME280;2075;51.062;6.920;2023-05-23T06:32:53;12107.00;;;-144.48;100.00
4123;BME280;2075;51.062;6.920;2023-05-23T06:35:39;16678.81;;;-144.48;100.00
4123;BME280;2075;51.062;6.920;2023-05-23T06:38:26;21766.06;;;-144.48;100.00
4123;BME280;2075;51.062;6.920;2023-05-23T06:41:12;27371.03;;;-144.48;100.00
4123;BME280;2075;51.062;6.920;2023-05-23T06:43:57;32219.28;;;-144.48;100.00
4123;BME280;2075;51.062;6.920;2023-05-23T06:46:48;50912.28;;;-144.48;100.00
4123;BME280;2075;51.062;6.920;2023-05-23T06:49:34;55794.63;;;-144.48;100.00
4123;BME280;2075;51.062;6.920;2023-05-23T06:52:19;53738.03;;;-144.48;100.00
4123;BME280;2075;51.062;6.920;2023-05-23T06:55:06;53224.09;;;-144.48;100.00
4123;BME280;2075;51.062;6.920;2023-05-23T06:57:51;66612.16;;;-144.48;100.00
4123;BME280;2075;51.062;6.920;2023-05-23T07:00:38;63260.19;;;-144.48;100.00
4123;BME280;2075;51.062;6.920;2023-05-23T07:03:44;74081.28;;;-144.48;100.00
4123;BME280;2075;51.062;6.920;2023-05-23T07:06:30;82651.88;;;-144.48;100.00
4123;BME280;2075;51.062;6.920;2023-05-23T07:09:15;78232.47;;;-144.48;100.00
4123;BME280;2075;51.062;6.920;2023-05-23T07:12:01;78721.88;;;-144.48;100.00
4123;BME280;2075;51.062;6.920;2023-05-23T07:14:47;74982.25;;;-144.48;100.00
4123;BME280;2075;51.062;6.920;2023-05-23T07:17:34;73594.56;;;-144.48;100.00
4123;BME280;2075;51.062;6.920;2023-05-23T07:20:21;65580.44;;;-144.48;100.00
4123;BME280;2075;51.062;6.920;2023-05-23T07:23:12;59396.66;;;-144.48;100.00
4123;BME280;2075;51.062;6.920;2023-05-23T07:25:58;65322.56;;;-144.48;100.00
4123;BME280;2075;51.062;6.920;2023-05-23T07:28:46;84738.09;;;-144.48;100.00
4123;BME280;2075;51.062;6.920;2023-05-23T07:31:31;79957.88;;;-144.48;100.00
4123;BME280;2075;51.062;6.920;2023-05-23T07:34:17;70776.47;;;-144.48;100.00
4123;BME280;2075;51.062;6.920;2023-05-23T07:37:22;72845.41;;;-144.48;100.00
4123;BME280;2075;51.062;6.920;2023-05-23T07:40:10;76421.00;;;-144.48;100.00
4123;BME280;2075;51.062;6.920;2023-05-23T07:42:56;78732.00;;;-144.48;100.00
4123;BME280;2075;51.062;6.920;2023-05-23T07:45:43;78998.97;;;-144.48;100.00
4123;BME280;2075;51.062;6.920;2023-05-23T07:48:29;79632.13;;;-144.48;100.00
4123;BME280;2075;51.062;6.920;2023-05-23T07:51:15;79456.13;;;-144.48;100.00
4123;BME280;2075;51.062;6.920;2023-05-23T07:54:04;82125.47;;;-144.48;100.00
4123;BME280;2075;51.062;6.920;2023-05-23T07:56:51;83407.22;;;-144.48;100.00
4123;BME280;2075;51.062;6.920;2023-05-23T07:59:37;82372.47;;;-144.48;100.00
4123;BME280;2075;51.062;6.920;2023-05-23T08:02:23;84405.84;;;-144.48;100.00
4123;BME280;2075;51.062;6.920;2023-05-23T08:05:09;74592.34;;;-144.48;100.00
4123;BME280;2075;51.062;6.920;2023-05-23T08:07:54;78572.22;;;-144.48;100.00
4123;BME280;2075;51.062;6.920;2023-05-23T08:10:42;75663.16;;;-144.48;100.00
4123;BME280;2075;51.062;6.920;2023-05-23T08:13:35;76111.78;;;-144.48;100.00
4123;BME280;2075;51.062;6.920;2023-05-23T08:16:47;73231.06;;;-144.48;100.00
4123;BME280;2075;51.062;6.920;2023-05-23T08:19:38;68160.31;;;-144.48;100.00
4123;BME280;2075;51.062;6.920;2023-05-23T08:22:23;65322.56;;;-144.48;100.00
4123;BME280;2075;51.062;6.920;2023-05-23T08:25:10;71315.28;;;-144.48;100.00
4123;BME280;2075;51.062;6.920;2023-05-23T08:27:59;65580.44;;;-144.48;100.00
4123;BME280;2075;51.062;6.920;2023-05-23T08:31:11;58881.84;;;-144.48;100.00
4123;BME280;2075;51.062;6.920;2023-05-23T08:33:57;55794.63;;;-144.48;100.00
4123;BME280;2075;51.062;6.920;2023-05-23T08:36:43;49628.63;;;-144.48;100.00
4123;BME280;2075;51.062;6.920;2023-05-23T08:39:33;51939.56;;;-144.48;100.00
4123;BME280;2075;51.062;6.920;2023-05-23T08:42:37;65580.44;;;-144.48;100.00
4123;BME280;2075;51.062;6.920;2023-05-23T08:45:25;73148.28;;;-144.48;100.00
4123;BME280;2075;51.062;6.920;2023-05-23T08:48:13;68418.44;;;-144.48;100.00
4123;BME280;2075;51.062;6.920;2023-05-23T08:51:04;63002.50;;;-144.48;100.00
4123;BME280;2075;51.062;6.920;2023-05-23T08:53:51;80052.97;;;-144.48;100.00
4123;BME280;2075;51.062;6.920;2023-05-23T08:56:42;77991.81;;;-144.48;100.00
4123;BME280;2075;51.062;6.920;2023-05-23T08:59:29;85747.22;;;-144.48;100.00
4123;BME280;2075;51.062;6.920;2023-05-23T09:02:17;91006.34;;;-144.48;100.00
4123;BME280;2075;51.062;6.920;2023-05-23T09:05:05;88143.56;;;-144.48;100.00
4123;BME280;2075;51.062;6.920;2023-05-23T09:07:53;85098.75;;;-144.48;100.00
4123;BME280;2075;51.062;6.920;2023-05-23T09:10:40;82271.22;;;-144.48;100.00
4123;BME280;2075;51.062;6.920;2023-05-23T09:13:27;80285.66;;;-144.48;100.00
4123;BME280;2075;51.062;6.920;2023-05-23T09:16:16;76190.59;;;-144.48;100.00
4123;BME280;2075;51.062;6.920;2023-05-23T09:19:12;63002.50;;;-144.48;100.00
4123;BME280;2075;51.062;6.920;2023-05-23T09:22:01;55280.38;;;-144.48;100.00
4123;BME280;2075;51.062;6.920;2023-05-23T09:25:06;55537.47;;;-144.48;100.00
4123;BME280;2075;51.062;6.920;2023-05-23T09:27:52;57595.16;;;-144.48;100.00
4123;BME280;2075;51.062;6.920;2023-05-23T09:30:39;64033.44;;;-144.48;100.00
4123;BME280;2075;51.062;6.920;2023-05-23T09:33:33;65838.34;;;-144.48;100.00
4123;BME280;2075;51.062;6.920;2023-05-23T09:36:20;49885.31;;;-144.48;100.00
4123;BME280;2075;51.062;6.920;2023-05-23T09:39:06;55023.25;;;-144.48;100.00
4123;BME280;2075;51.062;6.920;2023-05-23T09:41:52;61714.25;;;-144.48;100.00
4123;BME280;2075;51.062;6.920;2023-05-23T09:44:40;64806.84;;;-144.48;100.00
4123;BME280;2075;51.062;6.920;2023-05-23T09:47:27;78103.03;;;-144.48;100.00
4123;BME280;2075;51.062;6.920;2023-05-23T09:50:12;75115.59;;;-144.48;100.00
4123;BME280;2075;51.062;6.920;2023-05-23T09:52:59;75651.03;;;-144.48;100.00
4123;BME280;2075;51.062;6.920;2023-05-23T09:55:45;58624.47;;;-144.48;100.00
4123;BME280;2075;51.062;6.920;2023-05-23T09:58:32;66096.25;;;-144.48;100.00
4123;BME280;2075;51.062;6.920;2023-05-23T10:01:22;88772.31;;;-144.48;100.00
4123;BME280;2075;51.062;6.920;2023-05-23T10:04:11;93124.03;;;-144.48;95.48
4123;BME280;2075;51.062;6.920;2023-05-23T10:07:03;93386.03;;;-144.48;84.89
4123;BME280;2075;51.062;6.920;2023-05-23T10:09:53;93404.31;;;-144.48;82.42
4123;BME280;2075;51.062;6.920;2023-05-23T10:12:42;93343.38;;;-144.48;77.35
4123;BME280;2075;51.062;6.920;2023-05-23T10:15:34;93367.75;;;-144.48;77.94
4123;BME280;2075;51.062;6.920;2023-05-23T10:18:25;93300.72;;;-144.48;73.17
4123;BME280;2075;51.062;6.920;2023-05-23T10:21:18;93355.56;;;-144.48;70.12
4123;BME280;2075;51.062;6.920;2023-05-23T10:24:04;93288.53;;;-144.48;68.38
4123;BME280;2075;51.062;6.920;2023-05-23T10:26:53;93308.84;;;-144.48;69.75
4123;BME280;2075;51.062;6.920;2023-05-23T10:29:39;93491.66;;;-144.48;77.17
4123;BME280;2075;51.062;6.920;2023-05-23T10:32:25;93392.13;;;-144.48;77.82
4123;BME280;2075;51.062;6.920;2023-05-23T10:35:17;93412.44;;;-144.48;75.86
4123;BME280;2075;51.062;6.920;2023-05-23T10:38:09;93477.44;;;-144.48;78.26
4123;BME280;2075;51.062;6.920;2023-05-23T10:41:01;93646.03;;;-144.48;75.04
4123;BME280;2075;51.062;6.920;2023-05-23T10:43:56;93648.06;;;-144.48;83.89
4123;BME280;2075;51.062;6.920;2023-05-23T10:46:50;93566.81;;;-144.48;86.22
4123;BME280;2075;51.062;6.920;2023-05-23T10:49:41;93524.16;;;-144.48;78.78
4123;BME280;2075;51.062;6.920;2023-05-23T10:52:38;93446.97;;;-144.48;73.86
4123;BME280;2075;51.062;6.920;2023-05-23T10:55:24;93461.19;;;-144.48;74.83
4123;BME280;2075;51.062;6.920;2023-05-23T10:58:14;93396.19;;;-144.48;71.51
4123;BME280;2075;51.062;6.920;2023-05-23T11:01:04;93603.38;;;-144.48;75.73
4123;BME280;2075;51.062;6.920;2023-05-23T11:03:51;93593.22;;;-144.48;78.90
4123;BME280;2075;51.062;6.920;2023-05-23T11:06:39;93637.91;;;-144.48;80.89
4123;BME280;2075;51.062;6.920;2023-05-23T11:09:26;93631.81;;;-144.48;80.84
4123;BME280;2075;51.062;6.920;2023-05-23T11:12:11;93644.00;;;-144.48;84.34
4123;BME280;2075;51.062;6.920;2023-05-23T11:14:57;93700.88;;;-144.48;81.69
4123;BME280;2075;51.062;6.920;2023-05-23T11:17:51;93619.63;;;-144.48;77.87
4123;BME280;2075;51.062;6.920;2023-05-23T11:20:37;93719.16;;;-144.48;79.60
4123;BME280;2075;51.062;6.920;2023-05-23T11:23:23;93668.38;;;-144.48;77.89
4123;BME280;2075;51.062;6.920;2023-05-23T11:26:29;93656.19;;;-144.48;77.52
4123;BME280;2075;51.062;6.920;2023-05-23T11:29:15;93491.66;;;-144.48;69.94
4123;BME280;2075;51.062;6.920;2023-05-23T11:32:09;93432.75;;;-144.48;62.25
4123;BME280;2075;51.062;6.920;2023-05-23T11:34:58;93306.81;;;-144.48;60.12
4123;BME280;2075;51.062;6.920;2023-05-23T11:37:44;93304.78;;;-144.48;56.89
4123;BME280;2075;51.062;6.920;2023-05-23T11:40:31;93294.63;;;-144.48;56.25
4123;BME280;2075;51.062;6.920;2023-05-23T11:43:16;93335.25;;;-144.48;56.89
4123;BME280;2075;51.062;6.920;2023-05-23T11:46:06;93331.19;;;-144.48;54.48
4123;BME280;2075;51.062;6.920;2023-05-23T11:48:52;93392.13;;;-144.48;56.59
4123;BME280;2075;51.062;6.920;2023-05-23T11:51:39;93412.44;;;-144.48;58.33
4123;BME280;2075;51.062;6.920;2023-05-23T11:54:24;93477.44;;;-144.48;57.20
4123;BME280;2075;51.062;6.920;2023-05-23T11:57:12;93424.63;;;-144.48;55.92
4123;BME280;2075;51.062;6.920;2023-05-23T11:59:57;93329.16;;;-144.48;54.54
4123;BME280;2075;51.062;6.920;2023-05-23T12:02:44;93329.16;;;-144.48;53.55
4123;BME280;2075;51.062;6.920;2023-05-23T12:05:30;93357.59;;;-144.48;53.90
4123;BME280;2075;51.062;6.920;2023-05-23T12:08:17;93428.69;;;-144.48;54.72
4123;BME280;2075;51.062;6.920;2023-05-23T12:11:02;93489.63;;;-144.48;59.72
4123;BME280;2075;51.062;6.920;2023-05-23T12:13:51;93611.50;;;-144.48;64.59
4123;BME280;2075;51.062;6.920;2023-05-23T12:16:36;93709.00;;;-144.48;67.17
4123;BME280;2075;51.062;6.920;2023-05-23T12:19:22;93713.06;;;-144.48;70.65
4123;BME280;2075;51.062;6.920;2023-05-23T12:22:08;93688.69;;;-144.48;67.50
4123;BME280;2075;51.062;6.920;2023-05-23T12:24:55;93556.66;;;-144.48;63.83
4123;BME280;2075;51.062;6.920;2023-05-23T12:27:40;93514.00;;;-144.48;61.87
4123;BME280;2075;51.062;6.920;2023-05-23T12:30:27;93514.00;;;-144.48;59.96
4123;BME280;2075;51.062;6.920;2023-05-23T12:33:12;93489.63;;;-144.48;57.53
4123;BME280;2075;51.062;6.920;2023-05-23T12:35:57;93339.31;;;-144.48;52.94
4123;BME280;2075;51.062;6.920;2023-05-23T12:38:43;93363.69;;;-144.48;54.54
4123;BME280;2075;51.062;6.920;2023-05-23T12:41:31;93319.00;;;-144.48;51.07
4123;BME280;2075;51.062;6.920;2023-05-23T12:44:17;93430.72;;;-144.48;52.32
4123;BME280;2075;51.062;6.920;2023-05-23T12:47:02;93440.88;;;-144.48;53.14
4123;BME280;2075;51.062;6.920;2023-05-23T12:49:48;93522.13;;;-144.48;58.15
4123;BME280;2075;51.062;6.920;2023-05-23T12:52:33;93497.75;;;-144.48;57.39
4123;BME280;2075;51.062;6.920;2023-05-23T12:55:20;93554.63;;;-144.48;61.16
4123;BME280;2075;51.062;6.920;2023-05-23T12:58:08;93499.78;;;-144.48;58.62
4123;BME280;2075;51.062;6.920;2023-05-23T13:00:53;93339.31;;;-144.48;53.51
4123;BME280;2075;51.062;6.920;2023-05-23T13:03:39;93359.63;;;-144.48;52.48
4123;BME280;2075;51.062;6.920;2023-05-23T13:06:25;93367.75;;;-144.48;50.76
4123;BME280;2075;51.062;6.920;2023-05-23T13:09:10;93432.75;;;-144.48;50.79
4123;BME280;2075;51.062;6.920;2023-05-23T13:11:56;93465.25;;;-144.48;51.84
4123;BME280;2075;51.062;6.920;2023-05-23T13:14:45;93457.13;;;-144.48;51.78
4123;BME280;2075;51.062;6.920;2023-05-23T13:17:30;93388.06;;;-144.48;50.92
4123;BME280;2075;51.062;6.920;2023-05-23T13:20:16;93321.03;;;-144.48;51.39
4123;BME280;2075;51.062;6.920;2023-05-23T13:23:02;93345.41;;;-144.48;49.44
4123;BME280;2075;51.062;6.920;2023-05-23T13:25:48;93359.63;;;-144.48;49.64
4123;BME280;2075;51.062;6.920;2023-05-23T13:28:35;93489.63;;;-144.48;51.96
4123;BME280;2075;51.062;6.920;2023-05-23T13:31:21;93396.19;;;-144.48;48.11
4123;BME280;2075;51.062;6.920;2023-05-23T13:34:07;93386.03;;;-144.48;46.04
4123;BME280;2075;51.062;6.920;2023-05-23T13:36:53;93319.00;;;-144.48;46.30
4123;BME280;2075;51.062;6.920;2023-05-23T13:39:38;93241.84;;;-144.48;44.64
4123;BME280;2075;51.062;6.920;2023-05-23T13:42:23;92987.97;;;-144.48;44.57
4123;BME280;2075;51.062;6.920;2023-05-23T13:45:10;93083.41;;;-144.48;41.63
4123;BME280;2075;51.062;6.920;2023-05-23T13:47:57;93189.03;;;-144.48;42.03
4123;BME280;2075;51.062;6.920;2023-05-23T13:50:43;93306.81;;;-144.48;41.86
4123;BME280;2075;51.062;6.920;2023-05-23T13:53:29;93205.28;;;-144.48;41.15
4123;BME280;2075;51.062;6.920;2023-05-23T13:56:14;93095.59;;;-144.48;40.03
4123;BME280;2075;51.062;6.920;2023-05-23T13:59:00;93117.94;;;-144.48;39.74
4123;BME280;2075;51.062;6.920;2023-05-23T14:01:45;93103.72;;;-144.48;40.05
4123;BME280;2075;51.062;6.920;2023-05-23T14:04:32;93359.63;;;-144.48;43.69
4123;BME280;2075;51.062;6.920;2023-05-23T14:07:18;93323.06;;;-144.48;42.53
4123;BME280;2075;51.062;6.920;2023-05-23T14:10:04;93321.03;;;-144.48;41.96
4123;BME280;2075;51.062;6.920;2023-05-23T14:12:50;93367.75;;;-144.48;42.53
4123;BME280;2075;51.062;6.920;2023-05-23T14:15:35;93337.28;;;-144.48;43.45
4123;BME280;2075;51.062;6.920;2023-05-23T14:18:21;93304.78;;;-144.48;42.57
4123;BME280;2075;51.062;6.920;2023-05-23T14:21:08;93262.16;;;-144.48;42.03
4123;BME280;2075;51.062;6.920;2023-05-23T14:23:53;93144.34;;;-144.48;40.58
4123;BME280;2075;51.062;6.920;2023-05-23T14:26:39;93254.03;;;-144.48;41.81
4123;BME280;2075;51.062;6.920;2023-05-23T14:29:24;93132.16;;;-144.48;41.20
4123;BME280;2075;51.062;6.920;2023-05-23T14:32:10;93233.72;;;-144.48;42.00
4123;BME280;2075;51.062;6.920;2023-05-23T14:34:55;93225.59;;;-144.48;40.63
4123;BME280;2075;51.062;6.920;2023-05-23T14:37:42;93172.78;;;-144.48;40.05
4123;BME280;2075;51.062;6.920;2023-05-23T14:40:27;93172.78;;;-144.48;40.66